sensor_id;sensor_type;location;lat;lon;timestamp;P1;durP1;ratioP1;P2;durP2;ratioP2
59512;SDS011;45330;51.634;5.562;2022-07-23T00:00:54;15.85;;;5.03;;
59512;SDS011;45330;51.634;5.562;2022-07-23T00:03:20;14.93;;;4.90;;
59512;SDS011;45330;51.634;5.562;2022-07-23T00:05:45;10.95;;;4.78;;
59512;SDS011;45330;51.634;5.562;2022-07-23T00:08:10;14.65;;;5.32;;
59512;SDS011;45330;51.634;5.562;2022-07-23T00:10:36;12.55;;;5.15;;
59512;SDS011;45330;51.634;5.562;2022-07-23T00:13:02;11.93;;;4.70;;
59512;SDS011;45330;51.634;5.562;2022-07-23T00:15:27;14.48;;;5.13;;
59512;SDS011;45330;51.634;5.562;2022-07-23T00:17:53;18.88;;;5.40;;
59512;SDS011;45330;51.634;5.562;2022-07-23T00:20:18;12.63;;;5.10;;
59512;SDS011;45330;51.634;5.562;2022-07-23T00:25:11;13.43;;;5.15;;
59512;SDS011;45330;51.634;5.562;2022-07-23T00:27:37;11.95;;;4.88;;
59512;SDS011;45330;51.634;5.562;2022-07-23T00:30:02;12.48;;;5.10;;
59512;SDS011;45330;51.634;5.562;2022-07-23T00:32:28;10.98;;;5.07;;
59512;SDS011;45330;51.634;5.562;2022-07-23T00:34:53;12.10;;;5.10;;
59512;SDS011;45330;51.634;5.562;2022-07-23T00:37:19;14.80;;;5.47;;
59512;SDS011;45330;51.634;5.562;2022-07-23T00:39:44;13.38;;;5.28;;
59512;SDS011;45330;51.634;5.562;2022-07-23T00:42:09;13.30;;;5.30;;
59512;SDS011;45330;51.634;5.562;2022-07-23T00:44:35;11.13;;;5.20;;
59512;SDS011;45330;51.634;5.562;2022-07-23T00:47:00;13.35;;;5.10;;
59512;SDS011;45330;51.634;5.562;2022-07-23T00:49:29;10.10;;;5.13;;
59512;SDS011;45330;51.634;5.562;2022-07-23T00:51:55;13.43;;;4.90;;
59512;SDS011;45330;51.634;5.562;2022-07-23T00:54:22;12.27;;;5.13;;
59512;SDS011;45330;51.634;5.562;2022-07-23T00:56:49;12.27;;;5.13;;
59512;SDS011;45330;51.634;5.562;2022-07-23T00:59:15;15.30;;;5.40;;
59512;SDS011;45330;51.634;5.562;2022-07-23T01:01:40;14.38;;;5.38;;
59512;SDS011;45330;51.634;5.562;2022-07-23T01:04:06;11.27;;;4.88;;
59512;SDS011;45330;51.634;5.562;2022-07-23T01:06:37;13.52;;;5.10;;
59512;SDS011;45330;51.634;5.562;2022-07-23T01:09:03;12.88;;;5.00;;
59512;SDS011;45330;51.634;5.562;2022-07-23T01:11:31;13.00;;;4.90;;
59512;SDS011;45330;51.634;5.562;2022-07-23T01:16:39;15.95;;;5.40;;
59512;SDS011;45330;51.634;5.562;2022-07-23T01:19:06;14.82;;;5.28;;
59512;SDS011;45330;51.634;5.562;2022-07-23T01:21:32;15.88;;;5.38;;
59512;SDS011;45330;51.634;5.562;2022-07-23T01:24:00;13.20;;;5.30;;
59512;SDS011;45330;51.634;5.562;2022-07-23T01:26:26;14.80;;;5.90;;
59512;SDS011;45330;51.634;5.562;2022-07-23T01:28:51;11.75;;;5.07;;
59512;SDS011;45330;51.634;5.562;2022-07-23T01:31:16;13.80;;;5.32;;
59512;SDS011;45330;51.634;5.562;2022-07-23T01:33:42;11.63;;;5.50;;
59512;SDS011;45330;51.634;5.562;2022-07-23T01:36:08;15.95;;;5.72;;
59512;SDS011;45330;51.634;5.562;2022-07-23T01:38:34;14.20;;;5.75;;
59512;SDS011;45330;51.634;5.562;2022-07-23T01:40:59;13.15;;;5.78;;
59512;SDS011;45330;51.634;5.562;2022-07-23T01:43:24;14.00;;;5.68;;
59512;SDS011;45330;51.634;5.562;2022-07-23T01:45:50;13.80;;;5.35;;
59512;SDS011;45330;51.634;5.562;2022-07-23T01:48:15;13.48;;;5.60;;
59512;SDS011;45330;51.634;5.562;2022-07-23T01:50:41;17.17;;;5.82;;
59512;SDS011;45330;51.634;5.562;2022-07-23T01:53:06;15.52;;;6.30;;
59512;SDS011;45330;51.634;5.562;2022-07-23T01:55:32;18.30;;;6.13;;
59512;SDS011;45330;51.634;5.562;2022-07-23T01:57:57;17.52;;;6.15;;
59512;SDS011;45330;51.634;5.562;2022-07-23T02:00:23;14.52;;;5.90;;
59512;SDS011;45330;51.634;5.562;2022-07-23T02:02:48;16.83;;;6.00;;
59512;SDS011;45330;51.634;5.562;2022-07-23T02:05:13;14.40;;;6.10;;
59512;SDS011;45330;51.634;5.562;2022-07-23T02:07:39;15.15;;;6.15;;
59512;SDS011;45330;51.634;5.562;2022-07-23T02:10:05;14.80;;;5.95;;
59512;SDS011;45330;51.634;5.562;2022-07-23T02:12:31;14.65;;;6.07;;
59512;SDS011;45330;51.634;5.562;2022-07-23T02:14:56;15.93;;;6.55;;
59512;SDS011;45330;51.634;5.562;2022-07-23T02:17:21;14.25;;;6.28;;
59512;SDS011;45330;51.634;5.562;2022-07-23T02:19:47;16.77;;;6.70;;
59512;SDS011;45330;51.634;5.562;2022-07-23T02:22:12;14.60;;;6.40;;
59512;SDS011;45330;51.634;5.562;2022-07-23T02:24:37;17.80;;;6.93;;
59512;SDS011;45330;51.634;5.562;2022-07-23T02:27:03;17.77;;;6.95;;
59512;SDS011;45330;51.634;5.562;2022-07-23T02:29:28;18.63;;;6.95;;
59512;SDS011;45330;51.634;5.562;2022-07-23T02:31:53;15.93;;;6.55;;
59512;SDS011;45330;51.634;5.562;2022-07-23T02:34:19;15.65;;;6.90;;
59512;SDS011;45330;51.634;5.562;2022-07-23T02:36:44;18.33;;;7.10;;
59512;SDS011;45330;51.634;5.562;2022-07-23T02:39:10;19.40;;;6.90;;
59512;SDS011;45330;51.634;5.562;2022-07-23T02:41:36;18.48;;;7.30;;
59512;SDS011;45330;51.634;5.562;2022-07-23T02:44:01;16.73;;;7.43;;
59512;SDS011;45330;51.634;5.562;2022-07-23T02:46:27;18.40;;;6.90;;
59512;SDS011;45330;51.634;5.562;2022-07-23T02:48:52;18.02;;;7.43;;
59512;SDS011;45330;51.634;5.562;2022-07-23T02:51:17;18.10;;;7.07;;
59512;SDS011;45330;51.634;5.562;2022-07-23T02:53:43;17.17;;;7.50;;
59512;SDS011;45330;51.634;5.562;2022-07-23T02:56:08;17.17;;;7.20;;
59512;SDS011;45330;51.634;5.562;2022-07-23T02:58:34;17.40;;;7.45;;
59512;SDS011;45330;51.634;5.562;2022-07-23T03:00:59;16.10;;;6.85;;
59512;SDS011;45330;51.634;5.562;2022-07-23T03:03:25;15.52;;;7.28;;
59512;SDS011;45330;51.634;5.562;2022-07-23T03:05:50;22.10;;;8.02;;
59512;SDS011;45330;51.634;5.562;2022-07-23T03:08:15;16.08;;;6.85;;
59512;SDS011;45330;51.634;5.562;2022-07-23T03:10:41;19.90;;;7.60;;
59512;SDS011;45330;51.634;5.562;2022-07-23T03:13:06;16.13;;;7.20;;
59512;SDS011;45330;51.634;5.562;2022-07-23T03:15:32;17.85;;;6.95;;
59512;SDS011;45330;51.634;5.562;2022-07-23T03:17:57;17.40;;;7.47;;
59512;SDS011;45330;51.634;5.562;2022-07-23T03:20:22;16.88;;;6.95;;
59512;SDS011;45330;51.634;5.562;2022-07-23T03:22:48;16.83;;;7.32;;
59512;SDS011;45330;51.634;5.562;2022-07-23T03:25:13;16.23;;;7.22;;
59512;SDS011;45330;51.634;5.562;2022-07-23T03:27:38;18.63;;;7.25;;
59512;SDS011;45330;51.634;5.562;2022-07-23T03:30:04;15.90;;;6.88;;
59512;SDS011;45330;51.634;5.562;2022-07-23T03:32:30;18.02;;;7.30;;
59512;SDS011;45330;51.634;5.562;2022-07-23T03:34:56;17.65;;;7.30;;
59512;SDS011;45330;51.634;5.562;2022-07-23T03:37:22;17.23;;;7.57;;
59512;SDS011;45330;51.634;5.562;2022-07-23T03:39:47;17.52;;;7.50;;
59512;SDS011;45330;51.634;5.562;2022-07-23T03:42:13;15.63;;;7.40;;
59512;SDS011;45330;51.634;5.562;2022-07-23T03:44:38;17.30;;;7.50;;
59512;SDS011;45330;51.634;5.562;2022-07-23T03:47:03;18.35;;;7.97;;
59512;SDS011;45330;51.634;5.562;2022-07-23T03:49:30;18.88;;;7.78;;
59512;SDS011;45330;51.634;5.562;2022-07-23T03:51:56;17.08;;;7.93;;
59512;SDS011;45330;51.634;5.562;2022-07-23T03:54:21;17.67;;;8.05;;
59512;SDS011;45330;51.634;5.562;2022-07-23T03:56:47;16.48;;;7.85;;
59512;SDS011;45330;51.634;5.562;2022-07-23T03:59:12;18.00;;;8.27;;
59512;SDS011;45330;51.634;5.562;2022-07-23T04:01:38;17.88;;;8.43;;
59512;SDS011;45330;51.634;5.562;2022-07-23T04:04:03;20.10;;;7.97;;
59512;SDS011;45330;51.634;5.562;2022-07-23T04:06:28;16.30;;;7.88;;
59512;SDS011;45330;51.634;5.562;2022-07-23T04:08:54;20.63;;;8.20;;
59512;SDS011;45330;51.634;5.562;2022-07-23T04:11:20;19.20;;;8.07;;
59512;SDS011;45330;51.634;5.562;2022-07-23T04:13:45;17.13;;;7.65;;
59512;SDS011;45330;51.634;5.562;2022-07-23T04:16:11;18.95;;;8.30;;
59512;SDS011;45330;51.634;5.562;2022-07-23T04:18:36;22.27;;;8.35;;
59512;SDS011;45330;51.634;5.562;2022-07-23T04:21:02;17.88;;;7.95;;
59512;SDS011;45330;51.634;5.562;2022-07-23T04:23:27;20.25;;;8.23;;
59512;SDS011;45330;51.634;5.562;2022-07-23T04:25:53;18.00;;;7.68;;
59512;SDS011;45330;51.634;5.562;2022-07-23T04:28:18;19.92;;;8.07;;
59512;SDS011;45330;51.634;5.562;2022-07-23T04:30:43;18.08;;;8.38;;
59512;SDS011;45330;51.634;5.562;2022-07-23T04:33:09;19.10;;;8.75;;
59512;SDS011;45330;51.634;5.562;2022-07-23T04:35:34;17.95;;;8.15;;
59512;SDS011;45330;51.634;5.562;2022-07-23T04:38:01;16.90;;;7.95;;
59512;SDS011;45330;51.634;5.562;2022-07-23T04:40:26;17.60;;;7.32;;
59512;SDS011;45330;51.634;5.562;2022-07-23T04:42:52;18.02;;;8.40;;
59512;SDS011;45330;51.634;5.562;2022-07-23T04:45:18;16.27;;;7.20;;
59512;SDS011;45330;51.634;5.562;2022-07-23T04:47:43;17.50;;;7.85;;
59512;SDS011;45330;51.634;5.562;2022-07-23T04:50:09;15.77;;;7.38;;
59512;SDS011;45330;51.634;5.562;2022-07-23T04:52:34;18.13;;;7.35;;
59512;SDS011;45330;51.634;5.562;2022-07-23T04:54:59;16.98;;;7.13;;
59512;SDS011;45330;51.634;5.562;2022-07-23T04:57:25;17.95;;;7.07;;
59512;SDS011;45330;51.634;5.562;2022-07-23T04:59:50;13.82;;;6.10;;
59512;SDS011;45330;51.634;5.562;2022-07-23T05:02:16;14.38;;;5.90;;
59512;SDS011;45330;51.634;5.562;2022-07-23T05:04:41;12.88;;;5.20;;
59512;SDS011;45330;51.634;5.562;2022-07-23T05:07:07;13.20;;;5.55;;
59512;SDS011;45330;51.634;5.562;2022-07-23T05:09:32;16.17;;;5.90;;
59512;SDS011;45330;51.634;5.562;2022-07-23T05:11:57;13.68;;;5.90;;
59512;SDS011;45330;51.634;5.562;2022-07-23T05:14:23;24.65;;;6.15;;
59512;SDS011;45330;51.634;5.562;2022-07-23T05:16:48;12.30;;;5.30;;
59512;SDS011;45330;51.634;5.562;2022-07-23T05:19:13;14.10;;;5.95;;
59512;SDS011;45330;51.634;5.562;2022-07-23T05:21:39;13.57;;;5.80;;
59512;SDS011;45330;51.634;5.562;2022-07-23T05:24:05;12.48;;;5.88;;
59512;SDS011;45330;51.634;5.562;2022-07-23T05:26:30;16.52;;;5.97;;
59512;SDS011;45330;51.634;5.562;2022-07-23T05:28:56;12.38;;;5.70;;
59512;SDS011;45330;51.634;5.562;2022-07-23T05:31:21;15.65;;;5.90;;
59512;SDS011;45330;51.634;5.562;2022-07-23T05:33:47;15.55;;;5.65;;
59512;SDS011;45330;51.634;5.562;2022-07-23T05:36:12;15.25;;;5.60;;
59512;SDS011;45330;51.634;5.562;2022-07-23T05:38:37;15.10;;;5.95;;
59512;SDS011;45330;51.634;5.562;2022-07-23T05:41:03;13.70;;;6.03;;
59512;SDS011;45330;51.634;5.562;2022-07-23T05:43:28;14.55;;;5.80;;
59512;SDS011;45330;51.634;5.562;2022-07-23T05:45:54;20.23;;;6.22;;
59512;SDS011;45330;51.634;5.562;2022-07-23T05:48:19;16.98;;;6.68;;
59512;SDS011;45330;51.634;5.562;2022-07-23T05:50:46;18.17;;;6.32;;
59512;SDS011;45330;51.634;5.562;2022-07-23T05:53:12;15.15;;;6.25;;
59512;SDS011;45330;51.634;5.562;2022-07-23T05:55:37;18.42;;;6.68;;
59512;SDS011;45330;51.634;5.562;2022-07-23T05:58:03;16.15;;;6.47;;
59512;SDS011;45330;51.634;5.562;2022-07-23T06:00:28;16.27;;;6.43;;
59512;SDS011;45330;51.634;5.562;2022-07-23T06:02:53;14.80;;;5.85;;
59512;SDS011;45330;51.634;5.562;2022-07-23T06:05:19;14.07;;;5.90;;
59512;SDS011;45330;51.634;5.562;2022-07-23T06:07:44;17.45;;;6.70;;
59512;SDS011;45330;51.634;5.562;2022-07-23T06:10:10;13.40;;;6.50;;
59512;SDS011;45330;51.634;5.562;2022-07-23T06:12:35;15.60;;;5.95;;
59512;SDS011;45330;51.634;5.562;2022-07-23T06:15:01;16.10;;;6.43;;
59512;SDS011;45330;51.634;5.562;2022-07-23T06:17:27;15.30;;;5.80;;
59512;SDS011;45330;51.634;5.562;2022-07-23T06:19:53;18.27;;;5.95;;
59512;SDS011;45330;51.634;5.562;2022-07-23T06:22:19;15.38;;;5.70;;
59512;SDS011;45330;51.634;5.562;2022-07-23T06:24:45;13.77;;;5.53;;
59512;SDS011;45330;51.634;5.562;2022-07-23T06:27:10;13.65;;;5.90;;
59512;SDS011;45330;51.634;5.562;2022-07-23T06:29:35;16.95;;;6.05;;
59512;SDS011;45330;51.634;5.562;2022-07-23T06:32:01;13.20;;;5.93;;
59512;SDS011;45330;51.634;5.562;2022-07-23T06:34:26;20.55;;;6.22;;
59512;SDS011;45330;51.634;5.562;2022-07-23T06:36:52;16.83;;;5.82;;
59512;SDS011;45330;51.634;5.562;2022-07-23T06:39:17;14.70;;;5.30;;
59512;SDS011;45330;51.634;5.562;2022-07-23T06:41:42;15.65;;;5.63;;
59512;SDS011;45330;51.634;5.562;2022-07-23T06:44:08;14.70;;;5.20;;
59512;SDS011;45330;51.634;5.562;2022-07-23T06:46:33;17.70;;;5.50;;
59512;SDS011;45330;51.634;5.562;2022-07-23T06:48:59;13.35;;;5.07;;
59512;SDS011;45330;51.634;5.562;2022-07-23T06:51:24;12.63;;;5.20;;
59512;SDS011;45330;51.634;5.562;2022-07-23T06:53:50;10.27;;;4.57;;
59512;SDS011;45330;51.634;5.562;2022-07-23T06:56:15;9.73;;;4.57;;
59512;SDS011;45330;51.634;5.562;2022-07-23T06:58:40;11.93;;;5.15;;
59512;SDS011;45330;51.634;5.562;2022-07-23T07:01:06;12.77;;;4.95;;
59512;SDS011;45330;51.634;5.562;2022-07-23T07:03:31;12.55;;;4.90;;
59512;SDS011;45330;51.634;5.562;2022-07-23T07:05:56;11.27;;;5.03;;
59512;SDS011;45330;51.634;5.562;2022-07-23T07:08:22;11.98;;;5.38;;
59512;SDS011;45330;51.634;5.562;2022-07-23T07:10:48;14.10;;;5.38;;
59512;SDS011;45330;51.634;5.562;2022-07-23T07:13:14;13.85;;;5.40;;
59512;SDS011;45330;51.634;5.562;2022-07-23T07:15:39;13.52;;;5.13;;
59512;SDS011;45330;51.634;5.562;2022-07-23T07:18:05;14.15;;;5.15;;
59512;SDS011;45330;51.634;5.562;2022-07-23T07:20:30;12.60;;;4.97;;
59512;SDS011;45330;51.634;5.562;2022-07-23T07:22:55;15.05;;;4.63;;
59512;SDS011;45330;51.634;5.562;2022-07-23T07:25:21;14.82;;;5.20;;
59512;SDS011;45330;51.634;5.562;2022-07-23T07:27:46;14.82;;;5.00;;
59512;SDS011;45330;51.634;5.562;2022-07-23T07:30:11;12.45;;;4.32;;
59512;SDS011;45330;51.634;5.562;2022-07-23T07:32:38;10.32;;;3.50;;
59512;SDS011;45330;51.634;5.562;2022-07-23T07:35:04;10.68;;;3.75;;
59512;SDS011;45330;51.634;5.562;2022-07-23T07:37:30;10.05;;;3.78;;
59512;SDS011;45330;51.634;5.562;2022-07-23T07:39:55;8.23;;;4.00;;
59512;SDS011;45330;51.634;5.562;2022-07-23T07:42:20;9.52;;;4.20;;
59512;SDS011;45330;51.634;5.562;2022-07-23T07:44:46;11.25;;;3.58;;
59512;SDS011;45330;51.634;5.562;2022-07-23T07:47:11;9.10;;;3.28;;
59512;SDS011;45330;51.634;5.562;2022-07-23T07:49:38;11.45;;;3.63;;
59512;SDS011;45330;51.634;5.562;2022-07-23T07:52:04;9.90;;;3.70;;
59512;SDS011;45330;51.634;5.562;2022-07-23T07:54:31;11.15;;;3.65;;
59512;SDS011;45330;51.634;5.562;2022-07-23T07:56:57;11.07;;;3.70;;
59512;SDS011;45330;51.634;5.562;2022-07-23T07:59:22;9.77;;;3.53;;
59512;SDS011;45330;51.634;5.562;2022-07-23T08:01:48;12.60;;;3.70;;
59512;SDS011;45330;51.634;5.562;2022-07-23T08:04:13;10.60;;;3.67;;
59512;SDS011;45330;51.634;5.562;2022-07-23T08:06:39;10.35;;;3.67;;
59512;SDS011;45330;51.634;5.562;2022-07-23T08:09:04;10.38;;;4.18;;
59512;SDS011;45330;51.634;5.562;2022-07-23T08:11:29;10.40;;;3.88;;
59512;SDS011;45330;51.634;5.562;2022-07-23T08:13:55;11.02;;;3.70;;
59512;SDS011;45330;51.634;5.562;2022-07-23T08:16:21;11.02;;;3.60;;
59512;SDS011;45330;51.634;5.562;2022-07-23T08:18:46;9.25;;;3.58;;
59512;SDS011;45330;51.634;5.562;2022-07-23T08:21:11;8.63;;;3.40;;
59512;SDS011;45330;51.634;5.562;2022-07-23T08:23:37;9.48;;;3.85;;
59512;SDS011;45330;51.634;5.562;2022-07-23T08:26:02;11.10;;;4.07;;
59512;SDS011;45330;51.634;5.562;2022-07-23T08:28:28;10.07;;;3.40;;
59512;SDS011;45330;51.634;5.562;2022-07-23T08:30:53;6.50;;;3.33;;
59512;SDS011;45330;51.634;5.562;2022-07-23T08:33:19;12.07;;;3.90;;
59512;SDS011;45330;51.634;5.562;2022-07-23T08:35:45;11.73;;;4.20;;
59512;SDS011;45330;51.634;5.562;2022-07-23T08:38:13;8.80;;;3.53;;
59512;SDS011;45330;51.634;5.562;2022-07-23T08:40:50;11.13;;;4.07;;
59512;SDS011;45330;51.634;5.562;2022-07-23T08:43:19;10.77;;;3.80;;
59512;SDS011;45330;51.634;5.562;2022-07-23T08:45:47;11.10;;;3.95;;
59512;SDS011;45330;51.634;5.562;2022-07-23T08:48:15;7.45;;;3.45;;
59512;SDS011;45330;51.634;5.562;2022-07-23T08:50:49;6.60;;;3.30;;
59512;SDS011;45330;51.634;5.562;2022-07-23T08:53:17;13.13;;;4.50;;
59512;SDS011;45330;51.634;5.562;2022-07-23T08:55:44;10.07;;;3.95;;
59512;SDS011;45330;51.634;5.562;2022-07-23T08:58:11;10.38;;;3.80;;
59512;SDS011;45330;51.634;5.562;2022-07-23T09:00:37;10.15;;;4.15;;
59512;SDS011;45330;51.634;5.562;2022-07-23T09:03:03;13.77;;;4.22;;
59512;SDS011;45330;51.634;5.562;2022-07-23T09:05:28;12.23;;;4.40;;
59512;SDS011;45330;51.634;5.562;2022-07-23T09:10:47;11.25;;;4.72;;
59512;SDS011;45330;51.634;5.562;2022-07-23T09:13:23;14.63;;;5.60;;
59512;SDS011;45330;51.634;5.562;2022-07-23T09:15:52;11.18;;;4.90;;
59512;SDS011;45330;51.634;5.562;2022-07-23T09:18:19;13.88;;;5.10;;
59512;SDS011;45330;51.634;5.562;2022-07-23T09:20:56;12.50;;;4.85;;
59512;SDS011;45330;51.634;5.562;2022-07-23T09:23:40;12.35;;;4.82;;
59512;SDS011;45330;51.634;5.562;2022-07-23T09:26:22;14.60;;;5.25;;
59512;SDS011;45330;51.634;5.562;2022-07-23T09:28:55;13.52;;;5.00;;
59512;SDS011;45330;51.634;5.562;2022-07-23T09:31:24;10.88;;;4.50;;
59512;SDS011;45330;51.634;5.562;2022-07-23T09:34:02;10.55;;;4.47;;
59512;SDS011;45330;51.634;5.562;2022-07-23T09:36:32;11.32;;;4.60;;
59512;SDS011;45330;51.634;5.562;2022-07-23T09:38:57;12.43;;;5.03;;
59512;SDS011;45330;51.634;5.562;2022-07-23T09:41:23;13.93;;;4.97;;
59512;SDS011;45330;51.634;5.562;2022-07-23T09:43:54;15.13;;;5.30;;
59512;SDS011;45330;51.634;5.562;2022-07-23T09:48:55;13.90;;;4.60;;
59512;SDS011;45330;51.634;5.562;2022-07-23T09:51:22;10.48;;;3.92;;
59512;SDS011;45330;51.634;5.562;2022-07-23T09:54:04;10.32;;;4.32;;
59512;SDS011;45330;51.634;5.562;2022-07-23T09:56:29;10.98;;;4.47;;
59512;SDS011;45330;51.634;5.562;2022-07-23T09:58:56;12.48;;;4.80;;
59512;SDS011;45330;51.634;5.562;2022-07-23T10:01:36;13.27;;;4.90;;
59512;SDS011;45330;51.634;5.562;2022-07-23T10:04:03;11.55;;;4.47;;
59512;SDS011;45330;51.634;5.562;2022-07-23T10:06:29;10.48;;;4.25;;
59512;SDS011;45330;51.634;5.562;2022-07-23T10:08:54;11.93;;;4.25;;
59512;SDS011;45330;51.634;5.562;2022-07-23T10:11:23;11.43;;;5.05;;
59512;SDS011;45330;51.634;5.562;2022-07-23T10:13:49;11.40;;;4.40;;
59512;SDS011;45330;51.634;5.562;2022-07-23T10:16:22;14.90;;;4.90;;
59512;SDS011;45330;51.634;5.562;2022-07-23T10:18:48;10.73;;;5.13;;
59512;SDS011;45330;51.634;5.562;2022-07-23T10:21:21;13.82;;;5.18;;
59512;SDS011;45330;51.634;5.562;2022-07-23T10:30:00;13.48;;;5.30;;
59512;SDS011;45330;51.634;5.562;2022-07-23T10:35:50;14.27;;;5.45;;
59512;SDS011;45330;51.634;5.562;2022-07-23T10:40:55;12.27;;;5.80;;
59512;SDS011;45330;51.634;5.562;2022-07-23T10:43:26;15.02;;;6.78;;
59512;SDS011;45330;51.634;5.562;2022-07-23T10:45:52;11.60;;;5.57;;
59512;SDS011;45330;51.634;5.562;2022-07-23T10:48:19;13.88;;;6.90;;
59512;SDS011;45330;51.634;5.562;2022-07-23T10:56:15;14.65;;;6.10;;
59512;SDS011;45330;51.634;5.562;2022-07-23T10:58:48;12.05;;;5.32;;
59512;SDS011;45330;51.634;5.562;2022-07-23T11:04:02;12.48;;;5.93;;
59512;SDS011;45330;51.634;5.562;2022-07-23T11:14:59;10.45;;;4.72;;
59512;SDS011;45330;51.634;5.562;2022-07-23T11:17:26;14.15;;;5.13;;
59512;SDS011;45330;51.634;5.562;2022-07-23T11:22:39;12.82;;;5.55;;
59512;SDS011;45330;51.634;5.562;2022-07-23T11:25:13;11.48;;;4.10;;
59512;SDS011;45330;51.634;5.562;2022-07-23T11:27:53;10.15;;;4.70;;
59512;SDS011;45330;51.634;5.562;2022-07-23T11:32:54;12.82;;;4.60;;
59512;SDS011;45330;51.634;5.562;2022-07-23T11:35:39;10.90;;;4.78;;
59512;SDS011;45330;51.634;5.562;2022-07-23T11:40:34;14.77;;;4.88;;
59512;SDS011;45330;51.634;5.562;2022-07-23T11:43:04;9.52;;;4.20;;
59512;SDS011;45330;51.634;5.562;2022-07-23T11:45:36;10.00;;;4.03;;
59512;SDS011;45330;51.634;5.562;2022-07-23T11:48:07;9.20;;;3.85;;
59512;SDS011;45330;51.634;5.562;2022-07-23T11:50:34;12.23;;;4.10;;
59512;SDS011;45330;51.634;5.562;2022-07-23T11:53:00;7.72;;;3.67;;
59512;SDS011;45330;51.634;5.562;2022-07-23T11:55:26;9.30;;;3.75;;
59512;SDS011;45330;51.634;5.562;2022-07-23T11:57:53;9.20;;;4.25;;
59512;SDS011;45330;51.634;5.562;2022-07-23T12:00:21;10.35;;;4.18;;
59512;SDS011;45330;51.634;5.562;2022-07-23T12:02:49;11.40;;;4.63;;
59512;SDS011;45330;51.634;5.562;2022-07-23T12:05:17;10.95;;;4.63;;
59512;SDS011;45330;51.634;5.562;2022-07-23T12:07:44;11.50;;;5.22;;
59512;SDS011;45330;51.634;5.562;2022-07-23T12:10:28;10.10;;;4.82;;
59512;SDS011;45330;51.634;5.562;2022-07-23T12:13:03;10.57;;;4.85;;
59512;SDS011;45330;51.634;5.562;2022-07-23T12:15:31;12.85;;;5.45;;
59512;SDS011;45330;51.634;5.562;2022-07-23T12:18:05;15.73;;;6.28;;
59512;SDS011;45330;51.634;5.562;2022-07-23T12:20:33;14.25;;;5.68;;
59512;SDS011;45330;51.634;5.562;2022-07-23T12:23:02;12.30;;;5.38;;
59512;SDS011;45330;51.634;5.562;2022-07-23T12:25:31;12.98;;;5.20;;
59512;SDS011;45330;51.634;5.562;2022-07-23T12:28:06;11.45;;;5.47;;
59512;SDS011;45330;51.634;5.562;2022-07-23T12:30:33;10.68;;;4.30;;
59512;SDS011;45330;51.634;5.562;2022-07-23T12:33:13;12.32;;;5.60;;
59512;SDS011;45330;51.634;5.562;2022-07-23T12:35:46;10.43;;;4.45;;
59512;SDS011;45330;51.634;5.562;2022-07-23T12:38:17;9.65;;;4.57;;
59512;SDS011;45330;51.634;5.562;2022-07-23T12:40:48;11.85;;;4.90;;
59512;SDS011;45330;51.634;5.562;2022-07-23T12:43:25;11.88;;;4.43;;
59512;SDS011;45330;51.634;5.562;2022-07-23T12:46:18;10.00;;;4.57;;
59512;SDS011;45330;51.634;5.562;2022-07-23T12:53:43;13.88;;;4.70;;
59512;SDS011;45330;51.634;5.562;2022-07-23T12:56:14;13.60;;;4.90;;
59512;SDS011;45330;51.634;5.562;2022-07-23T12:58:46;12.80;;;5.63;;
59512;SDS011;45330;51.634;5.562;2022-07-23T13:03:56;11.02;;;5.05;;
59512;SDS011;45330;51.634;5.562;2022-07-23T13:06:21;10.73;;;4.50;;
59512;SDS011;45330;51.634;5.562;2022-07-23T13:08:47;11.10;;;4.45;;
59512;SDS011;45330;51.634;5.562;2022-07-23T13:11:12;11.95;;;5.30;;
59512;SDS011;45330;51.634;5.562;2022-07-23T13:13:37;9.98;;;4.43;;
59512;SDS011;45330;51.634;5.562;2022-07-23T13:16:03;14.20;;;4.97;;
59512;SDS011;45330;51.634;5.562;2022-07-23T13:18:29;11.82;;;4.25;;
59512;SDS011;45330;51.634;5.562;2022-07-23T13:20:55;14.50;;;5.28;;
59512;SDS011;45330;51.634;5.562;2022-07-23T13:23:20;11.15;;;4.60;;
59512;SDS011;45330;51.634;5.562;2022-07-23T13:25:46;14.25;;;5.90;;
59512;SDS011;45330;51.634;5.562;2022-07-23T13:28:12;10.82;;;4.97;;
59512;SDS011;45330;51.634;5.562;2022-07-23T13:30:39;11.10;;;5.38;;
59512;SDS011;45330;51.634;5.562;2022-07-23T13:33:05;11.57;;;4.60;;
59512;SDS011;45330;51.634;5.562;2022-07-23T13:35:32;14.57;;;5.40;;
59512;SDS011;45330;51.634;5.562;2022-07-23T13:37:59;12.40;;;5.20;;
59512;SDS011;45330;51.634;5.562;2022-07-23T13:40:24;11.55;;;4.72;;
59512;SDS011;45330;51.634;5.562;2022-07-23T13:42:50;13.05;;;5.22;;
59512;SDS011;45330;51.634;5.562;2022-07-23T13:45:15;13.75;;;5.55;;
59512;SDS011;45330;51.634;5.562;2022-07-23T13:47:41;12.55;;;5.38;;
59512;SDS011;45330;51.634;5.562;2022-07-23T13:50:06;10.95;;;4.15;;
59512;SDS011;45330;51.634;5.562;2022-07-23T13:52:32;9.82;;;4.50;;
59512;SDS011;45330;51.634;5.562;2022-07-23T13:54:59;11.18;;;4.93;;
59512;SDS011;45330;51.634;5.562;2022-07-23T13:57:26;11.68;;;4.53;;
59512;SDS011;45330;51.634;5.562;2022-07-23T13:59:51;12.63;;;4.28;;
59512;SDS011;45330;51.634;5.562;2022-07-23T14:02:17;9.73;;;4.28;;
59512;SDS011;45330;51.634;5.562;2022-07-23T14:04:42;11.20;;;4.50;;
59512;SDS011;45330;51.634;5.562;2022-07-23T14:07:09;10.93;;;4.30;;
59512;SDS011;45330;51.634;5.562;2022-07-23T14:09:35;9.98;;;4.00;;
59512;SDS011;45330;51.634;5.562;2022-07-23T14:12:01;12.40;;;4.72;;
59512;SDS011;45330;51.634;5.562;2022-07-23T14:14:26;10.13;;;4.57;;
59512;SDS011;45330;51.634;5.562;2022-07-23T14:16:51;13.13;;;5.40;;
59512;SDS011;45330;51.634;5.562;2022-07-23T14:19:17;12.73;;;4.60;;
59512;SDS011;45330;51.634;5.562;2022-07-23T14:21:42;11.63;;;4.40;;
59512;SDS011;45330;51.634;5.562;2022-07-23T14:24:08;12.60;;;4.78;;
59512;SDS011;45330;51.634;5.562;2022-07-23T14:26:33;13.35;;;5.43;;
59512;SDS011;45330;51.634;5.562;2022-07-23T14:28:59;11.98;;;4.97;;
59512;SDS011;45330;51.634;5.562;2022-07-23T14:31:24;12.65;;;4.95;;
59512;SDS011;45330;51.634;5.562;2022-07-23T14:33:49;10.30;;;4.88;;
59512;SDS011;45330;51.634;5.562;2022-07-23T14:36:15;11.68;;;4.82;;
59512;SDS011;45330;51.634;5.562;2022-07-23T14:38:42;11.45;;;4.80;;
59512;SDS011;45330;51.634;5.562;2022-07-23T14:41:07;11.63;;;4.30;;
59512;SDS011;45330;51.634;5.562;2022-07-23T14:43:34;11.48;;;4.20;;
59512;SDS011;45330;51.634;5.562;2022-07-23T14:46:00;10.90;;;4.82;;
59512;SDS011;45330;51.634;5.562;2022-07-23T14:48:25;11.38;;;4.50;;
59512;SDS011;45330;51.634;5.562;2022-07-23T14:50:51;11.02;;;4.38;;
59512;SDS011;45330;51.634;5.562;2022-07-23T14:53:16;8.65;;;3.70;;
59512;SDS011;45330;51.634;5.562;2022-07-23T14:55:42;11.15;;;4.30;;
59512;SDS011;45330;51.634;5.562;2022-07-23T14:58:08;11.13;;;4.55;;
59512;SDS011;45330;51.634;5.562;2022-07-23T15:00:34;9.38;;;3.67;;
59512;SDS011;45330;51.634;5.562;2022-07-23T15:02:59;5.95;;;2.97;;
59512;SDS011;45330;51.634;5.562;2022-07-23T15:05:24;7.70;;;2.70;;
59512;SDS011;45330;51.634;5.562;2022-07-23T15:07:50;8.20;;;3.40;;
59512;SDS011;45330;51.634;5.562;2022-07-23T15:10:15;5.28;;;3.00;;
59512;SDS011;45330;51.634;5.562;2022-07-23T15:12:41;5.88;;;2.97;;
59512;SDS011;45330;51.634;5.562;2022-07-23T15:15:07;6.78;;;3.05;;
59512;SDS011;45330;51.634;5.562;2022-07-23T15:17:33;8.73;;;3.10;;
59512;SDS011;45330;51.634;5.562;2022-07-23T15:19:58;6.30;;;3.08;;
59512;SDS011;45330;51.634;5.562;2022-07-23T15:22:23;5.55;;;2.90;;
59512;SDS011;45330;51.634;5.562;2022-07-23T15:24:49;12.15;;;3.50;;
59512;SDS011;45330;51.634;5.562;2022-07-23T15:27:14;10.30;;;3.80;;